createdAt,value
2018-11-12T08:06:11.394Z,1.40
2018-11-12T08:08:39.897Z,1.47
2018-11-12T08:11:09.236Z,1.80
2018-11-12T08:13:38.328Z,1.73
2018-11-12T08:16:06.626Z,2.07
2018-11-12T08:18:37.773Z,2.10
2018-11-12T08:21:09.233Z,1.70
2018-11-12T08:23:39.906Z,1.70
2018-11-12T08:26:09.529Z,1.70
2018-11-12T08:28:39.464Z,1.63
2018-11-12T08:31:11.855Z,1.60
2018-11-12T08:33:43.727Z,2.37
2018-11-12T08:36:12.102Z,2.13
2018-11-12T08:38:43.238Z,1.97
2018-11-12T08:41:11.724Z,2.00
2018-11-12T08:43:42.063Z,2.00
2018-11-12T08:46:10.956Z,1.30
2018-11-12T08:48:39.857Z,1.53
2018-11-12T08:51:08.782Z,1.40
2018-11-12T08:53:38.121Z,1.90
2018-11-12T08:56:07.878Z,1.50
2018-11-12T08:58:37.381Z,1.77
2018-11-12T09:01:07.145Z,1.40
2018-11-12T09:03:37.048Z,1.20
2018-11-12T09:06:08.903Z,1.30
2018-11-12T09:08:41.070Z,1.00
2018-11-12T09:11:10.008Z,1.60
2018-11-12T09:13:39.610Z,1.20
2018-11-12T09:16:09.478Z,1.33
2018-11-12T09:18:38.399Z,1.73
2018-11-12T09:21:06.680Z,1.80
2018-11-12T09:23:37.015Z,1.60
2018-11-12T09:26:05.864Z,1.60
2018-11-12T09:28:34.886Z,1.80
2018-11-12T09:31:05.397Z,1.43
2018-11-12T09:33:32.998Z,1.73
2018-11-12T09:36:01.799Z,1.53
2018-11-12T09:38:30.153Z,1.50
2018-11-12T09:40:58.570Z,1.43
2018-11-12T09:43:26.698Z,1.40
2018-11-12T09:45:55.423Z,2.80
2018-11-12T09:48:23.901Z,1.07
2018-11-12T09:50:52.306Z,1.50
2018-11-12T09:53:20.738Z,1.80
2018-11-12T09:55:49.452Z,2.30
2018-11-12T09:58:19.307Z,1.20
2018-11-12T10:00:49.476Z,1.20
2018-11-12T10:03:23.714Z,1.10
2018-11-12T10:05:54.633Z,1.10
2018-11-12T10:08:23.340Z,1.33
2018-11-12T10:10:56.159Z,0.90
2018-11-12T10:13:27.082Z,1.13
2018-11-12T10:15:55.976Z,1.10
2018-11-12T10:18:21.246Z,1.00
2018-11-12T10:20:49.271Z,1.10
2018-11-12T10:23:17.649Z,1.27
2018-11-12T10:25:45.636Z,1.37
2018-11-12T10:28:13.872Z,1.83
2018-11-12T10:30:42.098Z,1.40
2018-11-12T10:33:10.099Z,1.47
2018-11-12T10:35:38.125Z,1.33
2018-11-12T10:38:06.611Z,1.70
2018-11-12T10:40:34.798Z,2.37
2018-11-12T10:43:02.803Z,1.40
2018-11-12T10:45:30.778Z,1.17
2018-11-12T10:47:58.823Z,1.30
2018-11-12T10:50:26.785Z,1.80
2018-11-12T10:52:54.785Z,2.00
2018-11-12T10:55:24.057Z,1.87
2018-11-12T10:57:52.114Z,1.60
2018-11-12T11:00:26.076Z,1.83
2018-11-12T11:03:00.134Z,1.60
2018-11-12T11:05:28.112Z,1.77
2018-11-12T11:07:56.368Z,2.37
2018-11-12T11:10:25.654Z,1.50
2018-11-12T11:12:54.128Z,1.20
2018-11-12T11:15:22.234Z,1.13
2018-11-12T11:17:50.164Z,1.20
2018-11-12T11:20:18.162Z,1.40
2018-11-12T11:22:46.143Z,1.93
2018-11-12T11:25:14.139Z,1.50
2018-11-12T11:27:42.138Z,1.33
2018-11-12T11:30:11.772Z,1.33
2018-11-12T11:32:39.898Z,1.60
2018-11-12T11:35:08.222Z,1.17
2018-11-12T11:37:36.362Z,1.40
2018-11-12T11:40:06.119Z,1.53
2018-11-12T11:42:34.148Z,1.70
2018-11-12T11:45:02.133Z,1.70
2018-11-12T11:47:30.254Z,1.80
2018-11-12T11:49:58.200Z,1.90
2018-11-12T11:52:26.699Z,1.60
2018-11-12T11:54:54.735Z,1.50
2018-11-12T11:57:22.866Z,1.50
2018-11-12T11:59:50.744Z,2.60
2018-11-12T12:02:18.778Z,1.97
2018-11-12T12:04:46.706Z,2.03
2018-11-12T12:07:14.705Z,2.70
2018-11-12T12:09:42.686Z,1.73
2018-11-12T12:12:10.914Z,1.97
2018-11-12T12:14:38.926Z,2.03
2018-11-12T12:17:06.907Z,1.80
2018-11-12T12:19:34.889Z,1.60
2018-11-12T12:22:02.859Z,2.23
2018-11-12T12:24:30.910Z,2.43
2018-11-12T12:26:58.851Z,1.40
2018-11-12T12:29:26.890Z,1.80
2018-11-12T12:31:54.892Z,2.27
2018-11-12T12:34:22.889Z,1.70
2018-11-12T12:36:50.925Z,2.37
2018-11-12T12:39:18.873Z,1.90
2018-11-12T12:41:46.858Z,1.90
2018-11-12T12:44:14.864Z,1.90
2018-11-12T12:46:42.942Z,1.90
2018-11-12T12:49:10.934Z,2.10
2018-11-12T12:51:39.307Z,1.97
2018-11-12T12:54:07.446Z,2.73
2018-11-12T12:56:35.872Z,2.20
2018-11-12T12:59:04.322Z,2.17
2018-11-12T13:01:32.551Z,2.23
2018-11-12T13:04:00.569Z,2.20
2018-11-12T13:06:28.567Z,2.57
2018-11-12T13:08:56.525Z,2.60
2018-11-12T13:11:24.538Z,2.60
2018-11-12T13:13:52.672Z,2.70
2018-11-12T13:16:20.555Z,2.80
2018-11-12T13:18:48.865Z,2.97
2018-11-12T13:21:16.936Z,2.50
2018-11-12T13:23:44.873Z,1.70
2018-11-12T13:26:12.909Z,2.00
2018-11-12T13:28:40.892Z,2.10
2018-11-12T13:31:09.262Z,3.20
2018-11-12T13:33:37.244Z,2.30
2018-11-12T13:36:05.500Z,2.37
2018-11-12T13:38:33.506Z,2.07
2018-11-12T13:41:01.523Z,2.10
2018-11-12T13:43:29.570Z,2.10
2018-11-12T13:45:57.634Z,2.03
2018-11-12T13:48:25.607Z,1.47
2018-11-12T13:50:53.821Z,1.90
2018-11-12T13:53:22.026Z,1.50
2018-11-12T13:55:50.015Z,2.10
2018-11-12T13:58:18.060Z,1.80
2018-11-12T14:00:46.073Z,1.87
2018-11-12T14:03:14.041Z,1.73
2018-11-12T14:05:42.028Z,1.90
2018-11-12T14:08:10.974Z,2.00
2018-11-12T14:10:38.985Z,2.00
2018-11-12T14:13:06.963Z,2.10
2018-11-12T14:15:35.015Z,1.80
2018-11-12T14:18:03.031Z,1.90
2018-11-12T14:20:31.690Z,1.90
2018-11-12T14:22:59.585Z,2.03
2018-11-12T14:25:27.782Z,1.90
2018-11-12T14:27:57.004Z,1.93
2018-11-12T14:30:26.409Z,2.17
2018-11-12T14:32:54.967Z,2.00
2018-11-12T14:35:23.032Z,2.20
2018-11-12T14:37:50.998Z,1.70
2018-11-12T14:40:19.875Z,1.93
2018-11-12T14:42:48.513Z,2.20
2018-11-12T14:45:18.331Z,1.83
2018-11-12T14:47:46.956Z,2.10
2018-11-12T14:50:15.440Z,2.13
2018-11-12T14:52:43.504Z,1.43
2018-11-12T14:55:12.961Z,2.10
2018-11-12T14:57:41.220Z,1.90
2018-11-12T15:00:12.122Z,1.90
2018-11-12T15:02:40.442Z,1.83
2018-11-12T15:05:08.482Z,2.00
2018-11-12T15:07:36.501Z,1.97
2018-11-12T15:10:05.167Z,2.00
2018-11-12T15:12:33.651Z,1.90
2018-11-12T15:15:01.739Z,2.00
2018-11-12T15:17:29.954Z,2.37
2018-11-12T15:19:58.938Z,2.80
2018-11-12T15:22:27.370Z,4.50
2018-11-12T15:24:55.636Z,3.30
2018-11-12T15:27:24.702Z,4.30
2018-11-12T15:29:53.905Z,3.80
2018-11-12T15:32:22.739Z,4.10
2018-11-12T15:34:51.573Z,3.57
2018-11-12T15:37:20.134Z,4.03
2018-11-12T15:39:48.676Z,4.37
2018-11-12T15:42:17.330Z,4.80
2018-11-12T15:44:46.112Z,5.00
2018-11-12T15:47:14.586Z,6.10
2018-11-12T15:49:43.449Z,5.87
2018-11-12T15:52:11.989Z,5.80
2018-11-12T15:54:41.121Z,6.10
2018-11-12T15:57:10.346Z,6.37
2018-11-12T15:59:38.494Z,6.07
2018-11-12T16:02:06.791Z,5.07
2018-11-12T16:04:35.186Z,3.90
2018-11-12T16:07:04.822Z,3.80
2018-11-12T16:09:33.141Z,3.53
2018-11-12T16:12:01.457Z,3.47
2018-11-12T16:14:29.821Z,4.03
2018-11-12T16:16:58.765Z,4.97
2018-11-12T16:19:27.157Z,6.07
2018-11-12T16:21:55.468Z,9.17
2018-11-12T16:24:23.901Z,7.43
2018-11-12T16:26:52.196Z,7.70
2018-11-12T16:29:20.443Z,7.30
2018-11-12T16:31:48.715Z,8.80
2018-11-12T16:34:16.982Z,7.30
2018-11-12T16:36:45.269Z,9.30
2018-11-12T16:39:13.757Z,6.17
2018-11-12T16:41:42.221Z,5.47
2018-11-12T16:44:10.621Z,5.50
2018-11-12T16:46:38.886Z,7.07
2018-11-12T16:49:07.188Z,5.20
2018-11-12T16:51:35.565Z,5.60
2018-11-12T16:54:04.124Z,5.70
2018-11-12T16:56:32.504Z,6.07
2018-11-12T16:59:00.836Z,33.43
2018-11-12T17:01:29.405Z,45.27
2018-11-12T17:03:58.836Z,23.17
2018-11-12T17:06:27.384Z,10.77
2018-11-12T17:08:55.871Z,6.50
2018-11-12T17:11:26.761Z,6.43
2018-11-12T17:13:55.649Z,5.47
2018-11-12T17:16:24.228Z,5.40
2018-11-12T17:18:54.331Z,5.53
2018-11-12T17:21:23.947Z,6.70
2018-11-12T17:24:03.245Z,7.20
2018-11-12T17:29:21.242Z,6.73
2018-11-12T17:32:17.644Z,6.70
2018-11-12T17:34:56.968Z,5.90
